Beacon Falls, CT (06403)

11:40 PM EST on February 10, 2016 (GMT -0500)
Beacon Falls Center | | Change Station
CLOSE
Current Station
Personal Weather Station
Location: Beacon Falls, CT
Elevation: 164 ft
Nearby Weather Stations

Elev 164 ft 41.44 °N, 73.06 °W | Updated 1 minute ago

Clear
Clear
20.9 °F
Feels Like 21 °F
N
0.0
Wind Variable Wind from East
Gusts 2.0 mph

Today
High -- | Low -- °F
--% Chance of Precip.
Yesterday
High -- | Low -- °F
Precip. -- in
Pressure 29.69 in
Visibility 10.0 miles
Clouds Scattered Clouds 6000 ft
Mostly Cloudy 9500 ft
Windchill 21 °F
Dew Point 19 °F
Humidity 92%
Rainfall 0.09 in
Snow Depth Not available.
6:54 AM 5:19 PM
Waxing Crescent, 9% visible
METAR KOXC 110435Z 00000KT 10SM SCT060 BKN095 M03/M12 A2969 RMK AO1
Pressure 29.69 in
Visibility 10.0 miles
Clouds Scattered Clouds 6000 ft
Mostly Cloudy 9500 ft
Windchill 21 °F
Dew Point 19 °F
Humidity 92%
Rainfall 0.09 in
Snow Depth Not available.
6:54 AM 5:19 PM
Waxing Crescent, 9% visible
METAR KOXC 110435Z 00000KT 10SM SCT060 BKN095 M03/M12 A2969 RMK AO1

10-Day Weather Forecast

Almanac

Astronomy

Feb. 10, 2016 Rise Set
Actual Time
Civil Twilight
Nautical Twilight
Astronomical Twilight
Moon
Length of Visible Light
Length of Day
Tomorrow will be .
, % of the Moon is Illuminated

Today's Extremes

State Highs State Lows

Community

WunderPhotos

Upload Photos

1,892,014 photos uploaded!

WunderBlog® & News

Nearby

Air Quality

  Air Quality AQ Index Pollutant
Not available.

Snow Depth

Station Depth Elevation

Earthquake Activity

City Distance Mag. Time & Date
Minimum magnitude displayed is 2.5.

Coastal Water Temperatures

Place Temperature

Stations

Nearby Weather Stations

Station Location Temp. Windchill Dew Point Humidity Wind Precip. Elev Updated Type
                   

Watches & Warnings

There are currently no watches in effect.